createdAt,value
2017-12-16T00:01:22.271Z,26.60
2017-12-16T00:03:56.815Z,34.45
2017-12-16T00:06:34.531Z,31.12
2017-12-16T00:09:09.783Z,26.50
2017-12-16T00:11:44.343Z,33.80
2017-12-16T00:14:19.618Z,28.08
2017-12-16T00:16:55.033Z,24.08
2017-12-16T00:19:29.653Z,36.20
2017-12-16T00:22:04.086Z,25.25
2017-12-16T00:24:39.766Z,10.73
2017-12-16T00:27:14.304Z,16.80
2017-12-16T00:29:49.693Z,14.73
2017-12-16T00:32:26.671Z,28.12
2017-12-16T00:35:01.672Z,22.33
2017-12-16T00:37:36.136Z,21.77
2017-12-16T00:40:10.836Z,11.57
2017-12-16T00:42:45.421Z,25.65
2017-12-16T00:45:23.546Z,35.42
2017-12-16T00:47:59.911Z,30.27
2017-12-16T00:50:36.254Z,18.90
2017-12-16T00:53:19.800Z,27.08
2017-12-16T00:55:56.896Z,25.23
2017-12-16T00:58:32.021Z,34.10
2017-12-16T01:01:07.152Z,22.80
2017-12-16T01:03:41.597Z,37.90
2017-12-16T01:06:16.161Z,23.02
2017-12-16T01:08:50.744Z,27.42
2017-12-16T01:11:25.250Z,28.65
2017-12-16T01:14:00.300Z,21.50
2017-12-16T01:16:34.734Z,27.42
2017-12-16T01:19:09.169Z,18.35
2017-12-16T01:21:43.671Z,19.83
2017-12-16T01:24:18.187Z,26.77
2017-12-16T01:26:52.754Z,19.65
2017-12-16T01:29:27.360Z,20.27
2017-12-16T01:32:01.715Z,32.88
2017-12-16T01:34:48.080Z,31.50
2017-12-16T01:37:34.555Z,28.10
2017-12-16T01:40:09.112Z,11.38
2017-12-16T01:42:43.455Z,20.85
2017-12-16T01:45:17.876Z,16.25
2017-12-16T01:47:52.373Z,23.60
2017-12-16T01:50:26.730Z,29.20
2017-12-16T01:53:01.231Z,25.25
2017-12-16T01:55:35.731Z,24.90
2017-12-16T01:58:10.228Z,25.50
2017-12-16T02:00:44.963Z,32.38
2017-12-16T02:03:19.439Z,31.42
2017-12-16T02:05:53.807Z,22.62
2017-12-16T02:08:28.309Z,27.92
2017-12-16T02:11:02.902Z,22.10
2017-12-16T02:13:37.359Z,26.17
2017-12-16T02:16:11.712Z,36.30
2017-12-16T02:18:46.067Z,10.70
2017-12-16T02:21:21.324Z,21.65
2017-12-16T02:23:56.558Z,22.83
2017-12-16T02:26:30.982Z,20.42
2017-12-16T02:29:05.472Z,30.42
2017-12-16T02:31:40.787Z,22.17
2017-12-16T02:34:15.313Z,19.75
2017-12-16T02:36:49.792Z,17.65
2017-12-16T02:39:24.189Z,26.30
2017-12-16T02:41:58.701Z,17.87
2017-12-16T02:44:33.171Z,20.05
2017-12-16T02:47:07.464Z,16.02
2017-12-16T02:49:41.971Z,18.65
2017-12-16T02:52:16.404Z,36.25
2017-12-16T02:54:50.876Z,28.10
2017-12-16T02:57:25.374Z,18.48
2017-12-16T02:59:59.758Z,20.70
2017-12-16T03:02:34.163Z,19.00
2017-12-16T03:05:09.392Z,18.75
2017-12-16T03:07:43.894Z,15.07
2017-12-16T03:10:18.395Z,16.85
2017-12-16T03:12:53.666Z,12.02
2017-12-16T03:15:28.094Z,7.32
2017-12-16T03:18:02.408Z,15.07
2017-12-16T03:20:36.765Z,13.32
2017-12-16T03:23:11.206Z,19.65
2017-12-16T03:25:45.578Z,11.82
2017-12-16T03:28:20.118Z,25.40
2017-12-16T03:30:54.522Z,14.35
2017-12-16T03:33:28.951Z,17.25
2017-12-16T03:36:03.504Z,12.50
2017-12-16T03:38:38.693Z,18.02
2017-12-16T03:41:13.231Z,12.20
2017-12-16T03:43:47.586Z,12.88
2017-12-16T03:46:22.074Z,15.52
2017-12-16T03:48:56.414Z,13.60
2017-12-16T03:51:31.020Z,31.40
2017-12-16T03:54:05.311Z,21.10
2017-12-16T03:56:39.822Z,24.70
2017-12-16T03:59:14.419Z,22.73
2017-12-16T04:01:48.763Z,23.35
2017-12-16T04:04:23.223Z,11.35
2017-12-16T04:06:58.488Z,13.43
2017-12-16T04:09:33.725Z,17.33
2017-12-16T04:12:08.052Z,24.05
2017-12-16T04:14:42.397Z,13.48
2017-12-16T04:17:16.835Z,15.82
2017-12-16T04:19:52.108Z,22.67
2017-12-16T04:22:26.514Z,18.35
2017-12-16T04:25:00.968Z,14.95
2017-12-16T04:27:35.428Z,17.95
2017-12-16T04:30:09.947Z,14.60
2017-12-16T04:32:44.636Z,30.30
2017-12-16T04:35:20.073Z,21.83
2017-12-16T04:37:54.549Z,21.75
2017-12-16T04:40:29.915Z,25.37
2017-12-16T04:43:04.409Z,14.87
2017-12-16T04:45:38.791Z,10.85
2017-12-16T04:48:13.297Z,26.27
2017-12-16T04:50:47.750Z,26.92
2017-12-16T04:53:22.171Z,22.55
2017-12-16T04:55:57.435Z,17.35
2017-12-16T04:58:32.645Z,26.90
2017-12-16T05:01:07.118Z,21.20
2017-12-16T05:03:41.577Z,27.40
2017-12-16T05:06:16.127Z,12.75
2017-12-16T05:08:50.614Z,8.85
2017-12-16T05:11:25.082Z,13.07
2017-12-16T05:13:59.591Z,17.55
2017-12-16T05:16:34.063Z,18.62
2017-12-16T05:19:08.408Z,21.65
2017-12-16T05:21:42.995Z,15.80
2017-12-16T05:24:17.555Z,19.02
2017-12-16T05:26:52.049Z,19.73
2017-12-16T05:29:26.571Z,23.92
2017-12-16T05:32:01.148Z,19.58
2017-12-16T05:34:35.757Z,21.33
2017-12-16T05:37:10.306Z,21.40
2017-12-16T05:39:44.787Z,24.85
2017-12-16T05:42:19.227Z,11.93
2017-12-16T05:44:53.564Z,15.15
2017-12-16T05:47:28.960Z,16.80
2017-12-16T05:50:03.371Z,11.05
2017-12-16T05:52:37.731Z,10.88
2017-12-16T05:55:12.934Z,8.57
2017-12-16T05:57:48.236Z,9.18
2017-12-16T06:00:22.582Z,10.68
2017-12-16T06:02:58.261Z,11.02
2017-12-16T06:05:33.899Z,11.05
2017-12-16T06:08:08.317Z,13.50
2017-12-16T06:10:43.086Z,5.93
2017-12-16T06:13:17.912Z,10.80
2017-12-16T06:15:52.202Z,5.15
2017-12-16T06:18:28.393Z,1.70
2017-12-16T06:21:02.917Z,6.45
2017-12-16T06:23:37.385Z,5.55
2017-12-16T06:26:15.254Z,5.05
2017-12-16T06:28:51.552Z,8.65
2017-12-16T06:31:26.002Z,3.45
2017-12-16T06:34:01.244Z,5.50
2017-12-16T06:36:36.095Z,6.78
2017-12-16T06:39:12.200Z,3.28
2017-12-16T06:41:46.678Z,9.10
2017-12-16T06:44:21.809Z,1.65
2017-12-16T06:46:56.183Z,5.50
2017-12-16T06:49:31.430Z,3.05
2017-12-16T06:52:06.344Z,3.22
2017-12-16T06:54:40.718Z,1.83
2017-12-16T06:57:15.202Z,8.23
2017-12-16T06:59:50.373Z,5.78
2017-12-16T07:02:24.843Z,6.87
2017-12-16T07:05:01.031Z,1.98
2017-12-16T07:07:36.545Z,5.70
2017-12-16T07:10:10.937Z,4.50
2017-12-16T07:12:47.240Z,3.75
2017-12-16T07:15:21.843Z,1.85
2017-12-16T07:17:56.329Z,3.97
2017-12-16T07:20:30.972Z,1.23
2017-12-16T07:23:05.304Z,2.15
2017-12-16T07:25:40.152Z,7.93
2017-12-16T07:28:14.541Z,1.25
2017-12-16T07:30:49.012Z,3.22
2017-12-16T07:33:23.461Z,1.35
2017-12-16T07:35:57.915Z,0.90
2017-12-16T07:38:32.527Z,1.48
2017-12-16T07:41:06.879Z,1.67
2017-12-16T07:43:42.022Z,1.92
2017-12-16T07:46:16.456Z,0.88
2017-12-16T07:48:50.975Z,3.00
2017-12-16T07:51:25.386Z,1.58
2017-12-16T07:53:59.898Z,4.57
2017-12-16T07:56:34.394Z,2.08
2017-12-16T07:59:08.813Z,2.37
2017-12-16T08:01:43.222Z,2.30
2017-12-16T08:04:18.436Z,9.20
2017-12-16T08:06:53.064Z,4.22
2017-12-16T08:09:27.317Z,3.90
2017-12-16T08:12:01.819Z,1.80
2017-12-16T08:14:36.185Z,1.52
2017-12-16T08:17:10.669Z,4.45
2017-12-16T08:19:45.028Z,2.55
2017-12-16T08:22:19.531Z,1.42
2017-12-16T08:24:54.856Z,3.00
2017-12-16T08:27:30.502Z,3.90
2017-12-16T08:30:05.018Z,2.70
2017-12-16T08:32:40.682Z,3.20
2017-12-16T08:35:15.245Z,1.95
2017-12-16T08:37:49.584Z,1.45
2017-12-16T08:40:24.090Z,2.60
2017-12-16T08:42:58.540Z,1.67
2017-12-16T08:45:33.003Z,4.90
2017-12-16T08:48:07.469Z,1.40
2017-12-16T08:50:41.878Z,1.60
2017-12-16T08:53:16.172Z,1.50
2017-12-16T08:55:51.066Z,1.52
2017-12-16T08:58:25.412Z,2.35
2017-12-16T09:00:59.852Z,2.17
2017-12-16T09:03:34.285Z,2.10
2017-12-16T09:06:08.762Z,2.00
2017-12-16T09:08:43.201Z,2.97
2017-12-16T09:11:18.586Z,2.50
2017-12-16T09:13:53.072Z,1.10
2017-12-16T09:16:27.374Z,1.20
2017-12-16T09:19:01.773Z,1.75
2017-12-16T09:21:36.247Z,4.12
2017-12-16T09:24:10.752Z,2.05
2017-12-16T09:26:45.237Z,2.78
2017-12-16T09:29:19.775Z,5.12
2017-12-16T09:31:54.274Z,2.90
2017-12-16T09:34:28.686Z,1.85
2017-12-16T09:37:03.125Z,1.42
2017-12-16T09:39:37.481Z,4.10
2017-12-16T09:42:12.154Z,3.90
2017-12-16T09:44:46.571Z,2.05
2017-12-16T09:47:21.059Z,2.85
2017-12-16T09:49:55.606Z,1.67
2017-12-16T09:52:30.021Z,2.25
2017-12-16T09:55:04.513Z,2.10
2017-12-16T09:57:38.970Z,5.93
2017-12-16T10:00:13.545Z,6.60
2017-12-16T10:02:48.939Z,2.05
2017-12-16T10:05:23.443Z,2.28
2017-12-16T10:07:57.890Z,2.00
2017-12-16T10:10:32.406Z,4.30
2017-12-16T10:13:06.870Z,1.87
2017-12-16T10:15:41.356Z,3.50
2017-12-16T10:18:15.947Z,1.77
2017-12-16T10:20:50.245Z,3.35
2017-12-16T10:23:24.747Z,4.10
2017-12-16T10:25:59.199Z,2.08
2017-12-16T10:28:33.667Z,5.18
2017-12-16T10:31:08.195Z,2.25
2017-12-16T10:33:43.927Z,3.33
2017-12-16T10:36:18.452Z,2.65
2017-12-16T10:38:52.859Z,3.40
2017-12-16T10:41:27.208Z,6.03
2017-12-16T10:44:01.717Z,6.07
2017-12-16T10:46:36.109Z,1.52
2017-12-16T10:49:10.437Z,4.20
2017-12-16T10:51:45.728Z,5.25
2017-12-16T10:54:20.316Z,3.30
2017-12-16T10:56:55.013Z,2.03
2017-12-16T10:59:29.496Z,5.22
2017-12-16T11:02:04.739Z,5.22
2017-12-16T11:04:39.264Z,0.80
2017-12-16T11:07:13.759Z,1.67
2017-12-16T11:09:48.274Z,2.80
2017-12-16T11:12:22.768Z,1.58
2017-12-16T11:14:57.267Z,5.50
2017-12-16T11:17:31.707Z,1.10
2017-12-16T11:20:06.077Z,2.65
2017-12-16T11:22:40.462Z,1.25
2017-12-16T11:25:15.683Z,2.47
2017-12-16T11:27:50.062Z,6.82
2017-12-16T11:30:24.510Z,2.00
2017-12-16T11:32:59.775Z,4.97
2017-12-16T11:35:35.678Z,2.60
2017-12-16T11:38:11.193Z,2.53
2017-12-16T11:40:49.664Z,0.95
2017-12-16T11:43:24.717Z,1.85
2017-12-16T11:46:01.791Z,0.70
2017-12-16T11:48:36.258Z,0.93
2017-12-16T11:51:11.722Z,1.10
2017-12-16T11:53:46.484Z,1.55
2017-12-16T11:56:20.929Z,2.87
2017-12-16T11:58:55.879Z,3.40
2017-12-16T12:01:30.298Z,2.22
2017-12-16T12:04:04.780Z,2.15
2017-12-16T12:06:39.406Z,0.90
2017-12-16T12:09:14.629Z,3.83
2017-12-16T12:11:48.988Z,3.47
2017-12-16T12:14:23.295Z,2.72
2017-12-16T12:16:57.753Z,2.40
2017-12-16T12:19:32.256Z,2.28
2017-12-16T12:22:06.736Z,3.03
2017-12-16T12:24:41.132Z,3.03
2017-12-16T12:27:15.582Z,2.78
2017-12-16T12:29:50.878Z,2.85
2017-12-16T12:32:25.384Z,5.40
2017-12-16T12:34:59.895Z,5.82
2017-12-16T12:37:34.331Z,4.62
2017-12-16T12:40:09.547Z,2.17
2017-12-16T12:42:43.989Z,8.80
2017-12-16T12:45:18.574Z,10.38
2017-12-16T12:47:52.983Z,3.92
2017-12-16T12:50:27.420Z,1.98
2017-12-16T12:53:01.906Z,3.90
2017-12-16T12:55:36.360Z,1.33
2017-12-16T12:58:10.878Z,2.15
2017-12-16T13:00:46.140Z,4.12
2017-12-16T13:03:20.506Z,1.12
2017-12-16T13:05:55.482Z,6.32
2017-12-16T13:08:30.072Z,5.10
2017-12-16T13:11:04.417Z,5.97
2017-12-16T13:13:38.897Z,2.00
2017-12-16T13:16:13.369Z,4.12
2017-12-16T13:18:47.895Z,1.30
2017-12-16T13:21:22.306Z,0.55
2017-12-16T13:23:56.790Z,0.70
2017-12-16T13:26:40.622Z,8.27
2017-12-16T13:29:15.474Z,5.20
2017-12-16T13:31:50.022Z,6.03
2017-12-16T13:34:24.408Z,3.40
2017-12-16T13:36:58.899Z,8.88
2017-12-16T13:39:33.323Z,3.70
2017-12-16T13:42:07.793Z,8.32
2017-12-16T13:44:42.668Z,0.77
2017-12-16T13:47:18.841Z,0.75
2017-12-16T13:49:53.230Z,2.80
2017-12-16T13:52:27.759Z,3.08
2017-12-16T13:55:02.193Z,2.40
2017-12-16T13:57:36.690Z,5.18
2017-12-16T14:00:11.222Z,1.45
2017-12-16T14:02:46.541Z,2.47
2017-12-16T14:05:21.064Z,1.77
2017-12-16T14:07:55.545Z,1.35
2017-12-16T14:10:30.701Z,5.72
2017-12-16T14:13:05.135Z,2.70
2017-12-16T14:15:39.568Z,2.08
2017-12-16T14:18:14.000Z,5.80
2017-12-16T14:20:48.408Z,1.10
2017-12-16T14:23:22.862Z,7.72
2017-12-16T14:25:57.937Z,6.15
2017-12-16T14:28:32.454Z,6.28
2017-12-16T14:31:06.999Z,2.80
2017-12-16T14:33:41.710Z,2.67
2017-12-16T14:36:16.840Z,3.37
2017-12-16T14:38:51.198Z,5.97
2017-12-16T14:41:25.666Z,4.72
2017-12-16T14:44:00.062Z,5.25
2017-12-16T14:46:34.626Z,5.57
2017-12-16T14:49:09.132Z,2.28
2017-12-16T14:51:43.590Z,5.05
2017-12-16T14:54:18.091Z,2.92
2017-12-16T14:56:52.631Z,5.70
2017-12-16T14:59:29.726Z,6.07
2017-12-16T15:02:04.044Z,2.10
2017-12-16T15:04:38.490Z,3.22
2017-12-16T15:07:13.042Z,3.47
2017-12-16T15:09:47.490Z,6.28
2017-12-16T15:12:23.184Z,4.45
2017-12-16T15:14:57.558Z,2.28
2017-12-16T15:17:32.062Z,3.33
2017-12-16T15:20:06.625Z,2.22
2017-12-16T15:22:50.382Z,6.78
2017-12-16T15:25:24.769Z,4.12
2017-12-16T15:27:59.273Z,2.08
2017-12-16T15:30:33.869Z,7.65
2017-12-16T15:33:19.012Z,4.12
2017-12-16T15:35:54.324Z,2.28
2017-12-16T15:38:28.764Z,6.43
2017-12-16T15:41:03.843Z,3.35
2017-12-16T15:43:39.105Z,2.97
2017-12-16T15:46:13.468Z,2.55
2017-12-16T15:48:48.998Z,2.00
2017-12-16T15:51:24.289Z,1.90
2017-12-16T15:53:58.680Z,1.87
2017-12-16T15:56:33.235Z,3.08
2017-12-16T15:59:07.649Z,4.00
2017-12-16T16:01:42.269Z,6.00
2017-12-16T16:04:16.832Z,2.83
2017-12-16T16:06:51.460Z,1.60
2017-12-16T16:09:25.992Z,2.35
2017-12-16T16:12:00.729Z,2.17
2017-12-16T16:14:35.115Z,4.82
2017-12-16T16:17:09.518Z,2.58
2017-12-16T16:19:44.320Z,4.78
2017-12-16T16:22:18.792Z,2.33
2017-12-16T16:24:54.010Z,2.17
2017-12-16T16:27:28.452Z,2.08
2017-12-16T16:30:02.956Z,3.60
2017-12-16T16:32:37.374Z,5.40
2017-12-16T16:35:12.816Z,3.50
2017-12-16T16:37:47.374Z,2.25
2017-12-16T16:40:22.653Z,4.90
2017-12-16T16:42:58.294Z,2.58
2017-12-16T16:45:32.862Z,3.10
2017-12-16T16:48:07.350Z,2.70
2017-12-16T16:50:41.711Z,4.47
2017-12-16T16:53:16.281Z,6.45
2017-12-16T16:55:50.611Z,4.53
2017-12-16T16:58:26.177Z,1.65
2017-12-16T17:01:00.841Z,3.35
2017-12-16T17:03:35.425Z,1.42
2017-12-16T17:06:09.928Z,5.35
2017-12-16T17:08:44.472Z,4.47
2017-12-16T17:11:19.058Z,2.05
2017-12-16T17:13:53.572Z,3.80
2017-12-16T17:16:28.049Z,0.80
2017-12-16T17:19:02.439Z,2.08
2017-12-16T17:21:36.966Z,3.10
2017-12-16T17:24:11.492Z,3.15
2017-12-16T17:26:46.029Z,4.72
2017-12-16T17:29:20.602Z,3.62
2017-12-16T17:31:55.027Z,3.62
2017-12-16T17:34:29.514Z,2.20
2017-12-16T17:37:03.919Z,5.20
2017-12-16T17:39:38.324Z,2.10
2017-12-16T17:42:13.853Z,2.60
2017-12-16T17:44:48.343Z,2.92
2017-12-16T17:47:22.639Z,2.05
2017-12-16T17:49:57.124Z,2.45
2017-12-16T17:52:31.600Z,2.53
2017-12-16T17:55:06.945Z,3.72
2017-12-16T17:57:42.851Z,3.25
2017-12-16T18:00:17.443Z,2.75
2017-12-16T18:02:51.978Z,1.80
2017-12-16T18:05:26.719Z,1.85
2017-12-16T18:08:01.088Z,3.03
2017-12-16T18:10:35.628Z,2.30
2017-12-16T18:13:10.029Z,1.58
2017-12-16T18:15:44.457Z,1.75
2017-12-16T18:18:18.793Z,2.85
2017-12-16T18:20:53.123Z,2.37
2017-12-16T18:23:28.288Z,2.70
2017-12-16T18:26:02.760Z,2.40
2017-12-16T18:28:37.987Z,4.18
2017-12-16T18:31:12.435Z,2.17
2017-12-16T18:33:48.033Z,3.80
2017-12-16T18:36:22.452Z,5.62
2017-12-16T18:38:56.783Z,5.00
2017-12-16T18:41:31.144Z,2.70
2017-12-16T18:44:05.632Z,3.67
2017-12-16T18:46:40.136Z,3.37
2017-12-16T18:49:14.638Z,6.75
2017-12-16T18:51:49.016Z,6.68
2017-12-16T18:54:23.502Z,6.10
2017-12-16T18:56:57.849Z,3.15
2017-12-16T18:59:33.890Z,5.25
2017-12-16T19:02:11.991Z,9.98
2017-12-16T19:04:46.391Z,5.00
2017-12-16T19:07:20.861Z,4.62
2017-12-16T19:09:55.876Z,9.65
2017-12-16T19:12:30.344Z,5.95
2017-12-16T19:15:06.720Z,5.37
2017-12-16T19:17:41.308Z,9.48
2017-12-16T19:20:17.005Z,6.22
2017-12-16T19:22:51.650Z,3.35
2017-12-16T19:25:25.997Z,8.23
2017-12-16T19:28:00.400Z,13.60
2017-12-16T19:30:34.718Z,6.22
2017-12-16T19:33:09.304Z,2.85
2017-12-16T19:35:44.577Z,11.12
2017-12-16T19:38:19.044Z,3.58
2017-12-16T19:40:53.527Z,6.22
2017-12-16T19:43:28.110Z,8.23
2017-12-16T19:46:02.560Z,7.22
2017-12-16T19:48:37.040Z,4.47
2017-12-16T19:51:12.164Z,5.90
2017-12-16T19:56:44.138Z,8.48
2017-12-16T19:59:19.695Z,5.05
2017-12-16T20:01:54.220Z,11.98
2017-12-16T20:04:28.994Z,7.03
2017-12-16T20:07:03.376Z,6.72
2017-12-16T20:09:37.834Z,8.15
2017-12-16T20:12:12.341Z,4.53
2017-12-16T20:14:47.026Z,5.07
2017-12-16T20:17:21.473Z,2.53
2017-12-16T20:19:55.826Z,3.67
2017-12-16T20:22:32.976Z,11.65
2017-12-16T20:25:07.542Z,2.35
2017-12-16T20:27:43.646Z,5.03
2017-12-16T20:30:19.361Z,4.68
2017-12-16T20:32:58.062Z,3.37
2017-12-16T20:35:32.615Z,2.97
2017-12-16T20:38:06.935Z,2.72
2017-12-16T20:40:41.274Z,3.40
2017-12-16T20:43:15.777Z,3.40
2017-12-16T20:45:50.272Z,3.17
2017-12-16T20:48:25.796Z,3.42
2017-12-16T20:51:01.063Z,3.72
2017-12-16T20:53:35.483Z,6.00
2017-12-16T20:56:09.989Z,5.30
2017-12-16T20:58:44.451Z,7.72
2017-12-16T21:01:18.802Z,2.72
2017-12-16T21:03:53.351Z,4.85
2017-12-16T21:06:27.609Z,3.75
2017-12-16T21:09:01.949Z,4.00
2017-12-16T21:11:37.085Z,3.97
2017-12-16T21:14:11.450Z,7.87
2017-12-16T21:16:45.768Z,4.12
2017-12-16T21:19:20.181Z,4.97
2017-12-16T21:21:54.679Z,7.22
2017-12-16T21:24:29.013Z,5.65
2017-12-16T21:27:03.411Z,6.72
2017-12-16T21:29:37.864Z,14.87
2017-12-16T21:32:12.363Z,3.22
2017-12-16T21:34:46.839Z,6.87
2017-12-16T21:37:21.185Z,6.40
2017-12-16T21:39:56.742Z,4.40
2017-12-16T21:42:32.149Z,5.00
2017-12-16T21:45:07.418Z,5.55
2017-12-16T21:47:41.919Z,9.57
2017-12-16T21:50:17.058Z,8.45
2017-12-16T21:52:51.869Z,6.72
2017-12-16T21:55:27.031Z,11.00
2017-12-16T21:58:01.434Z,3.67
2017-12-16T22:00:36.008Z,6.18
2017-12-16T22:03:10.522Z,7.93
2017-12-16T22:05:44.959Z,4.37
2017-12-16T22:08:19.492Z,8.95
2017-12-16T22:10:53.914Z,8.93
2017-12-16T22:13:28.470Z,6.05
2017-12-16T22:16:02.856Z,6.72
2017-12-16T22:18:37.388Z,6.43
2017-12-16T22:21:15.518Z,7.50
2017-12-16T22:23:49.978Z,9.55
2017-12-16T22:26:24.468Z,4.82
2017-12-16T22:29:00.398Z,3.75
2017-12-16T22:31:36.078Z,12.50
2017-12-16T22:34:11.427Z,4.87
2017-12-16T22:36:48.185Z,7.18
2017-12-16T22:39:26.306Z,4.05
2017-12-16T22:42:01.189Z,6.03
2017-12-16T22:44:36.500Z,6.53
2017-12-16T22:49:49.954Z,7.03
2017-12-16T22:52:24.560Z,4.57
2017-12-16T22:54:59.399Z,9.13
2017-12-16T22:57:33.781Z,14.05
2017-12-16T23:00:09.024Z,20.77
2017-12-16T23:02:43.452Z,4.55
2017-12-16T23:05:18.766Z,11.88
2017-12-16T23:07:54.394Z,3.20
2017-12-16T23:10:28.845Z,14.68
2017-12-16T23:13:03.285Z,4.85
2017-12-16T23:15:38.225Z,7.25
2017-12-16T23:18:12.628Z,19.05
2017-12-16T23:20:47.111Z,12.15
2017-12-16T23:23:21.584Z,10.73
2017-12-16T23:29:32.948Z,14.40
2017-12-16T23:32:07.295Z,8.27
2017-12-16T23:34:41.985Z,6.55
2017-12-16T23:37:16.418Z,3.58
2017-12-16T23:39:50.919Z,4.78
2017-12-16T23:42:25.304Z,12.63
2017-12-16T23:45:04.653Z,3.85
2017-12-16T23:50:49.441Z,3.10
2017-12-16T23:53:28.445Z,4.57
2017-12-16T23:56:03.112Z,3.17
2017-12-16T23:58:38.432Z,10.15
